createdAt,value
2023-03-04T00:00:30.209Z,5.97
2023-03-04T00:02:58.836Z,5.99
2023-03-04T00:05:25.464Z,5.99
2023-03-04T00:07:52.059Z,5.99
2023-03-04T00:10:18.771Z,5.98
2023-03-04T00:12:45.429Z,5.99
2023-03-04T00:15:12.097Z,5.99
2023-03-04T00:17:38.738Z,5.98
2023-03-04T00:20:05.869Z,5.99
2023-03-04T00:22:33.571Z,5.96
2023-03-04T00:25:00.201Z,5.92
2023-03-04T00:27:26.782Z,5.89
2023-03-04T00:29:53.432Z,5.90
2023-03-04T00:32:20.177Z,5.90
2023-03-04T00:34:46.821Z,5.91
2023-03-04T00:37:13.734Z,5.90
2023-03-04T00:39:40.467Z,5.90
2023-03-04T00:42:07.156Z,5.90
2023-03-04T00:44:33.773Z,5.90
2023-03-04T00:47:00.390Z,5.90
2023-03-04T00:49:27.106Z,5.91
2023-03-04T00:51:54.786Z,5.90
2023-03-04T00:54:21.713Z,5.90
2023-03-04T00:56:50.474Z,5.92
2023-03-04T00:59:17.130Z,5.89
2023-03-04T01:01:43.822Z,5.88
2023-03-04T01:04:11.571Z,5.87
2023-03-04T01:06:38.202Z,5.85
2023-03-04T01:09:04.796Z,5.84
2023-03-04T01:11:31.478Z,5.84
2023-03-04T01:13:58.166Z,5.83
2023-03-04T01:16:24.880Z,5.81
2023-03-04T01:18:51.568Z,5.81
2023-03-04T01:21:18.252Z,5.81
2023-03-04T01:23:44.849Z,5.80
2023-03-04T01:26:11.569Z,5.80
2023-03-04T01:28:38.436Z,5.80
2023-03-04T01:31:05.220Z,5.81
2023-03-04T01:33:32.051Z,5.82
2023-03-04T01:35:58.759Z,5.79
2023-03-04T01:38:25.595Z,5.79
2023-03-04T01:40:52.737Z,5.78
2023-03-04T01:43:23.537Z,5.80
2023-03-04T01:45:52.207Z,5.80
2023-03-04T01:48:24.620Z,5.81
2023-03-04T01:50:51.436Z,5.80
2023-03-04T01:53:22.491Z,5.80
2023-03-04T01:55:50.028Z,5.78
2023-03-04T01:58:16.690Z,5.78
2023-03-04T02:00:43.778Z,5.78
2023-03-04T02:03:15.302Z,5.75
2023-03-04T02:05:45.757Z,5.69
2023-03-04T02:08:14.186Z,5.70
2023-03-04T02:10:43.515Z,5.69
2023-03-04T02:13:11.255Z,5.69
2023-03-04T02:15:38.011Z,5.66
2023-03-04T02:18:15.067Z,5.64
2023-03-04T02:20:51.411Z,5.61
2023-03-04T02:23:37.939Z,5.60
2023-03-04T02:26:19.823Z,5.56
2023-03-04T02:28:49.062Z,5.54
2023-03-04T02:31:37.935Z,5.52
2023-03-04T02:34:11.293Z,5.52
2023-03-04T02:36:38.970Z,5.51
2023-03-04T02:39:15.799Z,5.49
2023-03-04T02:41:44.543Z,5.51
2023-03-04T02:44:20.849Z,5.50
2023-03-04T02:46:47.685Z,5.53
2023-03-04T02:49:14.656Z,5.51
2023-03-04T02:51:41.379Z,5.51
2023-03-04T02:54:22.493Z,5.49
2023-03-04T02:56:50.875Z,5.48
2023-03-04T02:59:18.654Z,5.45
2023-03-04T03:01:45.848Z,5.44
2023-03-04T03:04:13.217Z,5.38
2023-03-04T03:06:40.681Z,5.36
2023-03-04T03:09:08.799Z,5.36
2023-03-04T03:11:35.422Z,5.34
2023-03-04T03:14:02.182Z,5.34
2023-03-04T03:16:29.297Z,5.32
2023-03-04T03:18:56.390Z,5.32
2023-03-04T03:21:23.204Z,5.31
2023-03-04T03:23:50.344Z,5.28
2023-03-04T03:26:17.834Z,5.27
2023-03-04T03:28:44.530Z,5.26
2023-03-04T03:31:11.264Z,5.25
2023-03-04T03:33:37.946Z,5.24
2023-03-04T03:36:05.405Z,5.24
2023-03-04T03:38:32.224Z,5.22
2023-03-04T03:40:58.823Z,5.20
2023-03-04T03:43:25.504Z,5.16
2023-03-04T03:45:52.269Z,5.16
2023-03-04T03:48:19.025Z,5.18
2023-03-04T03:51:00.288Z,5.19
2023-03-04T03:53:26.919Z,5.20
2023-03-04T03:55:53.595Z,5.21
2023-03-04T03:58:20.273Z,5.20
2023-03-04T04:00:46.887Z,5.16
2023-03-04T04:03:16.129Z,5.16
2023-03-04T04:05:42.738Z,5.15
2023-03-04T04:08:18.786Z,5.13
2023-03-04T04:10:45.443Z,5.14
2023-03-04T04:13:12.204Z,5.14
2023-03-04T04:15:39.272Z,5.14
2023-03-04T04:18:07.285Z,5.10
2023-03-04T04:20:34.370Z,5.11
2023-03-04T04:23:01.032Z,5.11
2023-03-04T04:25:27.819Z,5.09
2023-03-04T04:27:54.429Z,5.09
2023-03-04T04:30:21.112Z,5.09
2023-03-04T04:32:47.718Z,5.09
2023-03-04T04:35:14.377Z,5.06
2023-03-04T04:37:41.071Z,5.06
2023-03-04T04:40:08.773Z,5.06
2023-03-04T04:42:35.443Z,5.08
2023-03-04T04:45:02.320Z,5.08
2023-03-04T04:47:29.578Z,5.06
2023-03-04T04:49:56.332Z,5.04
2023-03-04T04:52:22.956Z,5.05
2023-03-04T04:54:49.579Z,5.03
2023-03-04T04:57:16.277Z,5.02
2023-03-04T04:59:42.877Z,5.01
2023-03-04T05:02:09.555Z,5.02
2023-03-04T05:04:36.173Z,5.03
2023-03-04T05:07:02.992Z,5.02
2023-03-04T05:09:29.621Z,5.00
2023-03-04T05:11:56.366Z,4.99
2023-03-04T05:14:23.008Z,5.00
2023-03-04T05:16:49.709Z,4.98
2023-03-04T05:19:16.395Z,4.98
2023-03-04T05:21:42.973Z,5.01
2023-03-04T05:24:09.687Z,5.00
2023-03-04T05:26:36.376Z,4.99
2023-03-04T05:29:03.780Z,4.97
2023-03-04T05:31:30.757Z,4.98
2023-03-04T05:33:57.495Z,4.98
2023-03-04T05:36:24.251Z,4.97
2023-03-04T05:38:50.920Z,4.95
2023-03-04T05:41:20.416Z,4.95
2023-03-04T05:43:47.010Z,4.93
2023-03-04T05:46:15.385Z,4.94
2023-03-04T05:48:42.683Z,4.94
2023-03-04T05:51:09.412Z,4.93
2023-03-04T05:53:40.206Z,4.91
2023-03-04T05:56:11.095Z,4.89
2023-03-04T05:58:38.214Z,4.88
2023-03-04T06:01:05.211Z,4.88
2023-03-04T06:03:32.243Z,4.87
2023-03-04T06:06:01.409Z,4.88
2023-03-04T06:08:28.196Z,4.89
2023-03-04T06:10:56.787Z,4.89
2023-03-04T06:13:23.742Z,4.87
2023-03-04T06:16:00.025Z,4.87
2023-03-04T06:18:29.571Z,4.88
2023-03-04T06:21:01.563Z,4.89
2023-03-04T06:23:28.884Z,4.89
2023-03-04T06:25:57.110Z,4.86
2023-03-04T06:28:24.857Z,4.84
2023-03-04T06:30:55.881Z,4.82
2023-03-04T06:33:22.985Z,4.82
2023-03-04T06:35:54.966Z,4.82
2023-03-04T06:38:21.613Z,4.81
2023-03-04T06:40:48.266Z,4.81
2023-03-04T06:43:14.922Z,4.83
2023-03-04T06:45:41.530Z,4.81
2023-03-04T06:48:08.534Z,4.80
2023-03-04T06:50:35.165Z,4.81
2023-03-04T06:53:01.861Z,4.81
2023-03-04T06:55:28.478Z,4.77
2023-03-04T06:57:55.183Z,4.77
2023-03-04T07:00:24.009Z,4.76
2023-03-04T07:02:52.887Z,4.76
2023-03-04T07:05:20.681Z,4.76
2023-03-04T07:07:48.479Z,4.76
2023-03-04T07:10:15.393Z,4.74
2023-03-04T07:12:42.013Z,4.72
2023-03-04T07:15:09.722Z,4.74
2023-03-04T07:17:36.429Z,4.71
2023-03-04T07:20:03.848Z,4.70
2023-03-04T07:22:30.495Z,4.71
2023-03-04T07:24:57.174Z,4.71
2023-03-04T07:27:24.446Z,4.72
2023-03-04T07:29:51.109Z,4.74
2023-03-04T07:32:17.845Z,4.74
2023-03-04T07:34:44.559Z,4.75
2023-03-04T07:37:11.133Z,4.76
2023-03-04T07:39:37.816Z,4.75
2023-03-04T07:42:04.528Z,4.75
2023-03-04T07:44:31.189Z,4.75
2023-03-04T07:46:57.827Z,4.75
2023-03-04T07:49:24.411Z,4.75
2023-03-04T07:51:51.077Z,4.80
2023-03-04T07:54:20.294Z,4.80
2023-03-04T07:56:47.047Z,4.81
2023-03-04T07:59:13.730Z,4.82
2023-03-04T08:01:40.401Z,4.84
2023-03-04T08:04:07.669Z,4.84
2023-03-04T08:06:35.269Z,4.84
2023-03-04T08:09:05.640Z,4.83
2023-03-04T08:11:33.376Z,4.83
2023-03-04T08:14:00.069Z,4.85
2023-03-04T08:16:26.963Z,4.87
2023-03-04T08:18:56.297Z,4.90
2023-03-04T08:21:24.534Z,4.89
2023-03-04T08:23:52.194Z,4.90
2023-03-04T08:26:31.204Z,4.87
2023-03-04T08:28:58.169Z,4.85
2023-03-04T08:31:25.115Z,4.85
2023-03-04T08:33:53.065Z,4.86
2023-03-04T08:36:20.208Z,4.89
2023-03-04T08:38:47.053Z,4.88
2023-03-04T08:41:15.449Z,4.88
2023-03-04T08:43:42.791Z,4.89
2023-03-04T08:46:09.503Z,4.94
2023-03-04T08:48:37.246Z,4.93
2023-03-04T08:51:11.809Z,4.94
2023-03-04T08:53:39.178Z,4.93
2023-03-04T08:56:07.421Z,4.95
2023-03-04T08:58:34.434Z,4.95
2023-03-04T09:01:02.439Z,4.95
2023-03-04T09:03:29.256Z,4.95
2023-03-04T09:05:56.332Z,4.98
2023-03-04T09:08:23.065Z,5.02
2023-03-04T09:10:53.340Z,5.03
2023-03-04T09:13:20.591Z,5.00
2023-03-04T09:15:48.887Z,5.03
2023-03-04T09:18:16.380Z,5.05
2023-03-04T09:20:45.394Z,5.05
2023-03-04T09:23:13.057Z,5.04
2023-03-04T09:25:40.683Z,5.06
2023-03-04T09:28:07.632Z,5.08
2023-03-04T09:30:35.654Z,5.09
2023-03-04T09:33:02.443Z,5.06
2023-03-04T09:35:30.388Z,5.11
2023-03-04T09:37:58.148Z,5.15
2023-03-04T09:40:47.301Z,5.19
2023-03-04T09:43:23.785Z,5.22
2023-03-04T09:45:56.002Z,5.22
2023-03-04T09:48:28.168Z,5.23
2023-03-04T09:51:23.076Z,5.21
2023-03-04T09:53:57.564Z,5.18
2023-03-04T09:56:26.002Z,5.18
2023-03-04T09:59:24.942Z,5.21
2023-03-04T10:01:58.013Z,5.20
2023-03-04T10:04:40.015Z,5.19
2023-03-04T10:07:17.327Z,5.21
2023-03-04T10:09:53.938Z,5.22
2023-03-04T10:12:24.541Z,5.24
2023-03-04T10:15:00.526Z,5.27
2023-03-04T10:17:40.172Z,5.26
2023-03-04T10:20:18.771Z,5.26
2023-03-04T10:22:56.409Z,5.28
2023-03-04T10:25:27.222Z,5.31
2023-03-04T10:28:02.954Z,5.32
2023-03-04T10:30:51.211Z,5.33
2023-03-04T10:33:21.028Z,5.34
2023-03-04T10:35:53.544Z,5.32
2023-03-04T10:38:22.037Z,5.33
2023-03-04T10:40:48.768Z,5.36
2023-03-04T10:43:20.605Z,5.35
2023-03-04T10:45:49.207Z,5.35
2023-03-04T10:48:28.495Z,5.35
2023-03-04T10:51:19.553Z,5.37
2023-03-04T10:53:49.081Z,5.37
2023-03-04T10:56:35.693Z,5.38
2023-03-04T10:59:39.219Z,5.42
2023-03-04T11:02:17.878Z,5.48
2023-03-04T11:04:57.656Z,5.50
2023-03-04T11:07:26.866Z,5.50
2023-03-04T11:09:54.908Z,5.53
2023-03-04T11:12:33.337Z,5.57
2023-03-04T11:15:00.196Z,5.59
2023-03-04T11:17:59.307Z,5.61
2023-03-04T11:20:29.372Z,5.61
2023-03-04T11:23:00.001Z,5.63
2023-03-04T11:25:31.041Z,5.63
2023-03-04T11:28:03.371Z,5.65
2023-03-04T11:30:44.258Z,5.66
2023-03-04T11:33:33.443Z,5.68
2023-03-04T11:36:10.856Z,5.70
2023-03-04T11:38:47.457Z,5.74
2023-03-04T11:41:19.374Z,5.74
2023-03-04T11:43:47.433Z,5.78
2023-03-04T11:46:33.155Z,5.82
2023-03-04T11:49:26.048Z,5.82
2023-03-04T11:52:01.454Z,5.84
2023-03-04T11:55:09.521Z,5.82
2023-03-04T11:57:44.996Z,5.89
2023-03-04T12:00:32.789Z,5.89
2023-03-04T12:03:29.653Z,5.91
2023-03-04T12:06:02.185Z,5.96
2023-03-04T12:08:50.112Z,5.98
2023-03-04T12:11:55.377Z,6.05
2023-03-04T12:14:28.111Z,6.12
2023-03-04T12:17:03.475Z,6.14
2023-03-04T12:19:42.253Z,6.13
2023-03-04T12:22:30.304Z,6.14
2023-03-04T12:25:30.452Z,6.16
2023-03-04T12:28:00.799Z,6.16
2023-03-04T12:30:45.453Z,6.20
2023-03-04T12:33:33.081Z,6.22
2023-03-04T12:36:08.635Z,6.23
2023-03-04T12:38:56.519Z,6.25
2023-03-04T12:41:41.552Z,6.24
2023-03-04T12:44:18.184Z,6.22
2023-03-04T12:47:00.502Z,6.20
2023-03-04T12:49:45.912Z,6.24
2023-03-04T12:52:48.190Z,6.26
2023-03-04T12:55:19.111Z,6.31
2023-03-04T12:57:46.322Z,6.37
2023-03-04T13:00:12.914Z,6.43
2023-03-04T13:03:06.574Z,6.46
2023-03-04T13:06:08.513Z,6.48
2023-03-04T13:09:14.909Z,6.45
2023-03-04T13:11:45.022Z,6.43
2023-03-04T13:14:15.086Z,6.46
2023-03-04T13:16:50.250Z,6.50
2023-03-04T13:20:11.043Z,6.50
2023-03-04T13:22:40.819Z,6.53
2023-03-04T13:25:29.204Z,6.56
2023-03-04T13:28:11.898Z,6.61
2023-03-04T13:30:38.900Z,6.65
2023-03-04T13:33:08.441Z,6.64
2023-03-04T13:35:48.658Z,6.64
2023-03-04T13:38:37.352Z,6.68
2023-03-04T13:41:21.824Z,6.77
2023-03-04T13:43:49.897Z,6.79
2023-03-04T13:46:19.536Z,6.78
2023-03-04T13:49:35.475Z,6.78
2023-03-04T13:52:37.901Z,6.80
2023-03-04T13:55:37.248Z,6.81
2023-03-04T13:58:21.238Z,6.82
2023-03-04T14:00:51.199Z,6.84
2023-03-04T14:03:27.841Z,6.82
2023-03-04T14:06:28.113Z,6.78
2023-03-04T14:08:56.147Z,6.80
2023-03-04T14:11:39.657Z,6.84
2023-03-04T14:14:11.475Z,6.78
2023-03-04T14:16:41.160Z,6.76
2023-03-04T14:19:20.006Z,6.80
2023-03-04T14:21:47.557Z,6.81
2023-03-04T14:24:18.169Z,6.81
2023-03-04T14:26:44.948Z,6.84
2023-03-04T14:29:24.775Z,6.82
2023-03-04T14:31:52.424Z,6.78
2023-03-04T14:34:28.551Z,6.80
2023-03-04T14:36:56.553Z,6.80
2023-03-04T14:39:26.660Z,6.72
2023-03-04T14:42:01.153Z,6.69
2023-03-04T14:44:38.124Z,6.70
2023-03-04T14:47:22.119Z,6.68
2023-03-04T14:49:49.374Z,6.69
2023-03-04T14:52:43.901Z,6.72
2023-03-04T14:55:18.507Z,6.72
2023-03-04T14:57:47.658Z,6.74
2023-03-04T15:00:36.215Z,6.76
2023-03-04T15:03:25.278Z,6.71
2023-03-04T15:05:53.087Z,6.75
2023-03-04T15:08:29.785Z,6.79
2023-03-04T15:11:02.721Z,6.77
2023-03-04T15:13:45.070Z,6.73
2023-03-04T15:16:14.626Z,6.73
2023-03-04T15:18:57.207Z,6.71
2023-03-04T15:21:41.158Z,6.73
2023-03-04T15:24:10.038Z,6.69
2023-03-04T15:26:41.670Z,6.67
2023-03-04T15:29:17.095Z,6.60
2023-03-04T15:31:44.637Z,6.59
2023-03-04T15:34:16.360Z,6.57
2023-03-04T15:36:49.121Z,6.54
2023-03-04T15:39:18.140Z,6.49
2023-03-04T15:41:46.956Z,6.44
2023-03-04T15:44:13.798Z,6.45
2023-03-04T15:46:41.134Z,6.43
2023-03-04T15:49:07.871Z,6.40
2023-03-04T15:51:34.653Z,6.37
2023-03-04T15:54:01.463Z,6.36
2023-03-04T15:56:33.912Z,6.32
2023-03-04T15:59:11.099Z,6.30
2023-03-04T16:01:38.382Z,6.31
2023-03-04T16:04:06.761Z,6.31
2023-03-04T16:06:33.544Z,6.28
2023-03-04T16:09:01.546Z,6.30
2023-03-04T16:11:31.447Z,6.29
2023-03-04T16:13:58.175Z,6.25
2023-03-04T16:16:25.224Z,6.17
2023-03-04T16:18:52.001Z,6.05
2023-03-04T16:21:23.287Z,6.03
2023-03-04T16:23:51.631Z,6.05
2023-03-04T16:26:21.831Z,6.04
2023-03-04T16:28:48.716Z,6.06
2023-03-04T16:31:16.183Z,6.10
2023-03-04T16:33:43.021Z,6.11
2023-03-04T16:36:20.378Z,6.08
2023-03-04T16:38:47.580Z,6.03
2023-03-04T16:41:16.186Z,6.01
2023-03-04T16:43:43.192Z,5.98
2023-03-04T16:46:13.877Z,5.96
2023-03-04T16:48:41.136Z,5.94
2023-03-04T16:51:17.541Z,5.92
2023-03-04T16:53:48.841Z,5.92
2023-03-04T16:56:17.571Z,5.90
2023-03-04T16:58:44.839Z,5.87
2023-03-04T17:01:17.782Z,5.86
2023-03-04T17:03:44.825Z,5.83
2023-03-04T17:06:12.575Z,5.82
2023-03-04T17:08:39.500Z,5.80
2023-03-04T17:11:06.368Z,5.82
2023-03-04T17:13:33.069Z,5.82
2023-03-04T17:16:02.312Z,5.80
2023-03-04T17:18:29.847Z,5.75
2023-03-04T17:21:05.034Z,5.71
2023-03-04T17:23:31.821Z,5.66
2023-03-04T17:25:59.354Z,5.66
2023-03-04T17:28:26.674Z,5.65
2023-03-04T17:30:53.505Z,5.64
2023-03-04T17:33:20.906Z,5.63
2023-03-04T17:35:47.630Z,5.66
2023-03-04T17:38:15.782Z,5.65
2023-03-04T17:40:43.911Z,5.61
2023-03-04T17:43:13.686Z,5.60
2023-03-04T17:45:42.103Z,5.59
2023-03-04T17:48:15.303Z,5.57
2023-03-04T17:50:51.750Z,5.55
2023-03-04T17:53:19.162Z,5.53
2023-03-04T17:55:52.774Z,5.51
2023-03-04T17:58:20.032Z,5.50
2023-03-04T18:00:46.732Z,5.49
2023-03-04T18:03:14.560Z,5.50
2023-03-04T18:05:41.354Z,5.47
2023-03-04T18:08:08.058Z,5.45
2023-03-04T18:10:34.733Z,5.42
2023-03-04T18:13:01.405Z,5.42
2023-03-04T18:15:28.137Z,5.41
2023-03-04T18:17:54.692Z,5.41
2023-03-04T18:20:21.556Z,5.39
2023-03-04T18:22:48.259Z,5.39
2023-03-04T18:25:14.905Z,5.39
2023-03-04T18:27:42.125Z,5.35
2023-03-04T18:30:17.568Z,5.35
2023-03-04T18:32:51.890Z,5.35
2023-03-04T18:35:19.714Z,5.34
2023-03-04T18:37:46.914Z,5.33
2023-03-04T18:40:14.251Z,5.32
2023-03-04T18:42:44.121Z,5.40
2023-03-04T18:45:15.796Z,5.43
2023-03-04T18:47:48.939Z,5.43
2023-03-04T18:50:15.973Z,5.44
2023-03-04T18:52:43.142Z,5.42
2023-03-04T18:55:11.048Z,5.43
2023-03-04T18:57:40.529Z,5.43
2023-03-04T19:00:10.472Z,5.46
2023-03-04T19:02:52.264Z,5.47
2023-03-04T19:05:23.184Z,5.44
2023-03-04T19:07:50.002Z,5.44
2023-03-04T19:10:19.077Z,5.44
2023-03-04T19:12:46.121Z,5.43
2023-03-04T19:15:13.232Z,5.43
2023-03-04T19:17:40.643Z,5.43
2023-03-04T19:20:09.397Z,5.43
2023-03-04T19:22:36.210Z,5.41
2023-03-04T19:25:03.043Z,5.41
2023-03-04T19:27:30.442Z,5.41
2023-03-04T19:29:57.370Z,5.41
2023-03-04T19:32:24.389Z,5.41
2023-03-04T19:34:51.055Z,5.40
2023-03-04T19:37:18.066Z,5.37
2023-03-04T19:39:44.803Z,5.35
2023-03-04T19:42:13.281Z,5.34
2023-03-04T19:44:41.716Z,5.34
2023-03-04T19:47:10.263Z,5.34
2023-03-04T19:49:36.924Z,5.33
2023-03-04T19:52:03.651Z,5.32
2023-03-04T19:54:30.448Z,5.33
2023-03-04T19:56:58.763Z,5.32
2023-03-04T19:59:26.650Z,5.33
2023-03-04T20:01:56.024Z,5.28
2023-03-04T20:04:22.829Z,5.29
2023-03-04T20:06:51.330Z,5.28
2023-03-04T20:09:19.240Z,5.25
2023-03-04T20:11:57.801Z,5.23
2023-03-04T20:14:27.485Z,5.21
2023-03-04T20:16:54.153Z,5.18
2023-03-04T20:19:20.767Z,5.17
2023-03-04T20:21:47.385Z,5.16
2023-03-04T20:24:15.184Z,5.13
2023-03-04T20:26:41.881Z,5.12
2023-03-04T20:29:08.494Z,5.07
2023-03-04T20:31:38.455Z,5.06
2023-03-04T20:34:06.392Z,5.04
2023-03-04T20:36:33.256Z,5.06
2023-03-04T20:39:02.748Z,5.07
2023-03-04T20:41:31.741Z,5.05
2023-03-04T20:43:58.540Z,5.06
2023-03-04T20:46:45.207Z,5.05
2023-03-04T20:49:24.271Z,5.05
2023-03-04T20:52:11.483Z,5.06
2023-03-04T20:54:39.040Z,5.06
2023-03-04T20:57:10.748Z,5.02
2023-03-04T20:59:40.248Z,5.02
2023-03-04T21:02:09.127Z,4.99
2023-03-04T21:04:35.844Z,4.97
2023-03-04T21:07:02.613Z,4.97
2023-03-04T21:09:30.967Z,4.97
2023-03-04T21:11:59.754Z,4.96
2023-03-04T21:14:30.531Z,4.94
2023-03-04T21:16:59.656Z,4.90
2023-03-04T21:19:37.064Z,4.86
2023-03-04T21:22:04.609Z,4.86
2023-03-04T21:24:34.382Z,4.86
2023-03-04T21:27:01.992Z,4.86
2023-03-04T21:29:29.034Z,4.84
2023-03-04T21:32:13.297Z,4.83
2023-03-04T21:34:51.797Z,4.82
2023-03-04T21:37:19.889Z,4.77
2023-03-04T21:39:46.663Z,4.76
2023-03-04T21:42:13.585Z,4.82
2023-03-04T21:44:49.224Z,4.82
2023-03-04T21:47:16.865Z,4.82
2023-03-04T21:49:43.670Z,4.81
2023-03-04T21:52:10.384Z,4.82
2023-03-04T21:54:37.260Z,4.79
2023-03-04T21:57:05.109Z,4.76
2023-03-04T21:59:31.828Z,4.75
2023-03-04T22:01:58.678Z,4.74
2023-03-04T22:04:25.463Z,4.72
2023-03-04T22:06:52.100Z,4.66
2023-03-04T22:09:18.785Z,4.63
2023-03-04T22:11:48.058Z,4.66
2023-03-04T22:14:14.818Z,4.69
2023-03-04T22:16:54.638Z,4.67
2023-03-04T22:19:23.881Z,4.65
2023-03-04T22:21:51.599Z,4.63
2023-03-04T22:24:18.919Z,4.63
2023-03-04T22:26:46.082Z,4.62
2023-03-04T22:29:12.820Z,4.61
2023-03-04T22:31:39.649Z,4.59
2023-03-04T22:34:08.970Z,4.57
2023-03-04T22:36:38.801Z,4.59
2023-03-04T22:39:07.829Z,4.57
2023-03-04T22:41:35.101Z,4.56
2023-03-04T22:44:02.161Z,4.59
2023-03-04T22:46:33.499Z,4.57
2023-03-04T22:49:04.806Z,4.56
2023-03-04T22:51:32.326Z,4.54
2023-03-04T22:53:59.023Z,4.55
2023-03-04T22:56:25.726Z,4.54
2023-03-04T22:58:52.735Z,4.53
2023-03-04T23:01:20.141Z,4.56
2023-03-04T23:03:48.737Z,4.52
2023-03-04T23:06:21.327Z,4.49
2023-03-04T23:08:50.062Z,4.50
2023-03-04T23:11:29.195Z,4.49
2023-03-04T23:13:57.069Z,4.48
2023-03-04T23:16:27.797Z,4.46
2023-03-04T23:18:54.543Z,4.44
2023-03-04T23:21:24.119Z,4.43
2023-03-04T23:23:51.952Z,4.42
2023-03-04T23:26:27.714Z,4.41
2023-03-04T23:28:56.922Z,4.39
2023-03-04T23:31:24.308Z,4.40
2023-03-04T23:33:51.208Z,4.41
2023-03-04T23:36:19.589Z,4.42
2023-03-04T23:38:48.387Z,4.41
2023-03-04T23:41:17.946Z,4.39
2023-03-04T23:43:45.058Z,4.36
2023-03-04T23:46:11.980Z,4.34
2023-03-04T23:48:39.958Z,4.35
2023-03-04T23:51:06.743Z,4.37
2023-03-04T23:53:34.519Z,4.38
2023-03-04T23:56:01.159Z,4.39
2023-03-04T23:58:27.868Z,4.38
